Time;durP1;ratioP1;P1;durP2;ratioP2;P2;SDS_P1;SDS_P2;PMS_P1;PMS_P2;Temp;Humidity;BMP_temperature;BMP_pressure;BME280_temperature;BME280_humidity;BME280_pressure;Samples;Min_cycle;Max_cycle;Signal;HPM_P1;HPM_P2
2021/09/05 00:00:41;;;;;;;25.93;19.23;;;15.70;99.90;;;;;;5056484;28;20300;-71
2021/09/05 00:03:07;;;;;;;27.80;18.70;;;15.70;99.90;;;;;;5057580;28;20624;-72
2021/09/05 00:05:32;;;;;;;24.57;18.97;;;15.70;99.90;;;;;;5056841;28;20177;-72
2021/09/05 00:07:58;;;;;;;25.67;17.93;;;15.70;99.90;;;;;;5057014;28;20181;-72
2021/09/05 00:10:23;;;;;;;22.77;17.60;;;15.70;99.90;;;;;;5038507;28;20689;-72
2021/09/05 00:12:49;;;;;;;26.20;19.67;;;15.70;99.90;;;;;;5056598;28;20190;-72
2021/09/05 00:15:14;;;;;;;23.00;17.50;;;15.60;99.90;;;;;;5056536;28;20616;-71
2021/09/05 00:17:40;;;;;;;23.27;17.50;;;15.50;99.90;;;;;;5056494;28;20166;-71
2021/09/05 00:20:07;;;;;;;27.73;18.27;;;15.40;99.90;;;;;;5054811;28;20178;-72
2021/09/05 00:22:33;;;;;;;23.70;18.33;;;15.30;99.90;;;;;;5056408;28;20174;-73
2021/09/05 00:24:58;;;;;;;24.43;17.83;;;15.30;99.90;;;;;;5056175;28;20908;-71
2021/09/05 00:27:24;;;;;;;22.70;17.17;;;15.40;99.90;;;;;;5056903;28;20433;-71
2021/09/05 00:29:50;;;;;;;20.47;15.90;;;15.40;99.90;;;;;;5037832;28;20178;-71
2021/09/05 00:32:15;;;;;;;24.77;18.23;;;15.40;99.90;;;;;;5056718;28;20648;-72
2021/09/05 00:34:41;;;;;;;24.70;17.67;;;15.40;99.90;;;;;;5038337;28;20181;-71
2021/09/05 00:37:06;;;;;;;25.47;19.97;;;15.40;99.90;;;;;;5056120;28;20166;-72
2021/09/05 00:39:32;;;;;;;24.93;18.70;;;15.40;99.90;;;;;;5055854;28;20253;-72
2021/09/05 00:41:57;;;;;;;25.13;18.30;;;15.30;99.90;;;;;;5038546;28;20190;-71
2021/09/05 00:44:23;;;;;;;23.70;17.30;;;15.40;99.90;;;;;;5055990;28;20174;-72
2021/09/05 00:46:48;;;;;;;25.50;18.87;;;15.40;99.90;;;;;;5055703;28;20174;-71
2021/09/05 00:49:14;;;;;;;23.97;18.80;;;15.30;99.90;;;;;;5055759;28;20639;-72
2021/09/05 00:51:42;;;;;;;24.43;18.70;;;15.30;99.90;;;;;;5055546;28;20206;-72
2021/09/05 00:54:10;;;;;;;26.93;19.33;;;15.30;99.90;;;;;;5056188;28;20537;-72
2021/09/05 00:56:37;;;;;;;24.60;17.60;;;15.30;99.90;;;;;;5055795;28;20912;-72
2021/09/05 00:59:10;;;;;;;21.37;17.03;;;15.30;99.90;;;;;;5037961;28;20424;-71
2021/09/05 01:01:39;;;;;;;22.53;17.83;;;15.30;99.90;;;;;;5055957;28;20439;-71
2021/09/05 01:04:05;;;;;;;24.53;18.63;;;15.30;99.90;;;;;;5037768;28;20413;-71
2021/09/05 01:06:33;;;;;;;26.70;18.00;;;15.30;99.90;;;;;;5038442;28;20867;-71
2021/09/05 01:08:59;;;;;;;23.40;17.80;;;15.40;99.90;;;;;;5035975;28;20421;-72
2021/09/05 01:11:25;;;;;;;24.43;18.07;;;15.30;99.90;;;;;;5049444;28;21045;-72
2021/09/05 01:13:51;;;;;;;23.57;18.53;;;15.30;99.90;;;;;;5019484;28;20452;-71
2021/09/05 01:16:24;;;;;;;22.80;17.97;;;15.30;99.90;;;;;;5056607;28;20171;-71
2021/09/05 01:18:50;;;;;;;23.40;17.60;;;15.30;99.90;;;;;;5056985;28;20177;-71
2021/09/05 01:21:16;;;;;;;23.70;17.60;;;15.30;99.90;;;;;;5056285;28;20464;-70
2021/09/05 01:23:41;;;;;;;22.53;16.53;;;15.20;99.90;;;;;;5057223;28;20231;-71
2021/09/05 01:26:08;;;;;;;21.50;17.50;;;15.20;99.90;;;;;;5055849;28;20174;-71
2021/09/05 01:28:33;;;;;;;23.47;18.33;;;15.20;99.90;;;;;;5055863;28;20170;-71
2021/09/05 01:30:59;;;;;;;20.90;16.63;;;15.20;99.90;;;;;;5057002;28;20512;-71
2021/09/05 01:33:27;;;;;;;22.70;17.77;;;15.20;99.90;;;;;;5056350;28;20552;-72
2021/09/05 01:35:53;;;;;;;23.00;17.70;;;15.10;99.90;;;;;;5056027;28;20174;-71
2021/09/05 01:38:18;;;;;;;22.03;17.43;;;15.10;99.90;;;;;;5056276;28;20906;-71
2021/09/05 01:40:44;;;;;;;20.90;15.57;;;15.20;99.90;;;;;;5037968;28;20209;-72
2021/09/05 01:43:09;;;;;;;23.83;16.93;;;15.20;99.90;;;;;;5055688;28;20185;-71
2021/09/05 01:45:35;;;;;;;21.87;17.00;;;15.20;99.90;;;;;;5056460;28;20211;-71
2021/09/05 01:48:00;;;;;;;22.50;17.17;;;15.20;99.90;;;;;;5039010;28;20228;-71
2021/09/05 01:50:26;;;;;;;24.60;18.30;;;15.20;99.90;;;;;;5056285;28;20289;-72
2021/09/05 01:52:51;;;;;;;26.00;18.07;;;15.10;99.90;;;;;;5055718;28;20220;-72
2021/09/05 01:55:17;;;;;;;22.90;18.17;;;15.10;99.90;;;;;;5038261;28;20174;-71
2021/09/05 01:57:42;;;;;;;22.37;16.23;;;15.10;99.90;;;;;;5054728;28;20190;-71
2021/09/05 02:00:08;;;;;;;19.70;15.53;;;15.10;99.90;;;;;;5055113;28;20194;-72
2021/09/05 02:02:34;;;;;;;26.03;16.80;;;15.10;99.90;;;;;;5055746;28;20170;-71
2021/09/05 02:04:59;;;;;;;22.70;17.13;;;15.00;99.90;;;;;;5054623;28;20733;-71
2021/09/05 02:07:25;;;;;;;22.43;17.27;;;15.00;99.90;;;;;;5054821;28;20672;-71
2021/09/05 02:09:50;;;;;;;22.40;17.10;;;15.00;99.90;;;;;;5054713;28;20188;-72
2021/09/05 02:12:16;;;;;;;21.58;17.95;;;15.00;99.90;;;;;;5053791;28;20427;-70
2021/09/05 02:14:42;;;;;;;22.93;17.03;;;15.10;99.90;;;;;;5055087;28;20488;-72
2021/09/05 02:17:07;;;;;;;21.17;16.27;;;15.00;99.90;;;;;;5055958;28;20166;-72
2021/09/05 02:19:33;;;;;;;22.03;16.53;;;14.90;99.90;;;;;;5055337;28;20189;-71
2021/09/05 02:22:00;;;;;;;24.40;16.27;;;14.90;99.90;;;;;;5055084;28;20210;-71
2021/09/05 02:24:26;;;;;;;23.00;16.90;;;14.90;99.90;;;;;;5055243;28;20436;-71
2021/09/05 02:26:51;;;;;;;22.40;16.80;;;14.90;99.90;;;;;;5055208;28;20431;-71
2021/09/05 02:29:17;;;;;;;20.30;16.33;;;15.00;99.90;;;;;;5054882;28;20181;-71
2021/09/05 02:31:43;;;;;;;20.47;15.83;;;15.00;99.90;;;;;;5055395;28;20194;-71
2021/09/05 02:34:09;;;;;;;17.77;14.30;;;14.90;99.90;;;;;;5054430;28;20178;-72
2021/09/05 02:36:34;;;;;;;21.37;15.37;;;14.90;99.90;;;;;;5036183;28;20183;-71
2021/09/05 02:39:00;;;;;;;19.03;14.80;;;14.90;99.90;;;;;;5054877;28;20411;-71
2021/09/05 02:41:25;;;;;;;18.27;13.70;;;14.90;99.90;;;;;;5053618;28;20206;-72
2021/09/05 02:43:51;;;;;;;18.07;14.87;;;14.90;99.90;;;;;;5053760;28;20530;-71
2021/09/05 02:46:17;;;;;;;19.70;15.80;;;14.90;99.90;;;;;;5036749;28;20178;-72
2021/09/05 02:48:43;;;;;;;20.73;14.60;;;14.90;99.90;;;;;;5054043;28;20408;-71
2021/09/05 02:51:08;;;;;;;21.07;13.97;;;14.90;99.90;;;;;;5035990;28;20210;-71
2021/09/05 02:53:34;;;;;;;18.40;14.80;;;14.80;99.90;;;;;;5054602;28;20535;-71
2021/09/05 02:55:59;;;;;;;20.80;15.17;;;14.80;99.90;;;;;;5053919;28;20166;-72
2021/09/05 02:58:25;;;;;;;19.33;14.60;;;14.80;99.90;;;;;;5035937;28;20196;-71
2021/09/05 03:00:50;;;;;;;18.23;15.20;;;14.80;99.90;;;;;;5054136;28;20663;-72
2021/09/05 03:03:16;;;;;;;20.20;15.47;;;14.80;99.90;;;;;;5053891;28;20209;-71
2021/09/05 03:05:41;;;;;;;18.60;14.30;;;14.80;99.90;;;;;;5035027;28;20241;-72
2021/09/05 03:08:07;;;;;;;21.90;16.10;;;14.80;99.90;;;;;;5053534;28;20232;-69
2021/09/05 03:10:33;;;;;;;20.17;14.50;;;14.70;99.90;;;;;;5053850;28;20210;-71
2021/09/05 03:12:58;;;;;;;20.80;15.20;;;14.60;99.90;;;;;;5053883;28;20254;-71
2021/09/05 03:15:24;;;;;;;18.73;14.83;;;14.50;99.90;;;;;;5035030;28;20205;-72
2021/09/05 03:17:49;;;;;;;19.50;14.63;;;14.40;99.90;;;;;;5054375;28;20174;-72
2021/09/05 03:20:15;;;;;;;18.07;13.43;;;14.30;99.90;;;;;;5053323;28;20197;-72
2021/09/05 03:22:40;;;;;;;20.20;14.20;;;14.30;99.90;;;;;;5035671;28;20276;-72
2021/09/05 03:25:06;;;;;;;19.73;15.63;;;14.40;99.90;;;;;;5052751;28;20275;-71
2021/09/05 03:27:32;;;;;;;24.27;15.00;;;14.30;99.90;;;;;;5053306;28;20182;-72
2021/09/05 03:29:57;;;;;;;20.07;16.40;;;14.30;99.90;;;;;;5052631;28;20422;-72
2021/09/05 03:32:23;;;;;;;20.27;15.87;;;14.30;99.90;;;;;;5053482;28;20581;-71
2021/09/05 03:34:49;;;;;;;19.53;15.30;;;14.30;99.90;;;;;;5035455;28;20174;-72
2021/09/05 03:37:14;;;;;;;18.17;14.23;;;14.30;99.90;;;;;;5035198;28;20198;-71
2021/09/05 03:39:40;;;;;;;19.30;14.40;;;14.30;99.90;;;;;;5053645;28;20261;-71
2021/09/05 03:42:05;;;;;;;17.80;14.80;;;14.20;99.90;;;;;;5052548;28;20194;-71
2021/09/05 03:44:31;;;;;;;18.70;14.13;;;14.20;99.90;;;;;;5053577;28;20717;-72
2021/09/05 03:46:57;;;;;;;19.50;14.80;;;14.10;99.90;;;;;;5053652;28;20180;-71
2021/09/05 03:49:22;;;;;;;19.33;14.67;;;14.20;99.90;;;;;;5052955;28;20181;-70
2021/09/05 03:51:48;;;;;;;16.70;12.97;;;14.20;99.90;;;;;;5053278;28;20683;-71
2021/09/05 03:54:13;;;;;;;18.53;14.47;;;14.20;99.90;;;;;;5038252;28;20206;-70
2021/09/05 03:56:39;;;;;;;19.93;14.00;;;14.20;99.90;;;;;;5039757;28;20205;-72
2021/09/05 03:59:04;;;;;;;19.77;13.93;;;14.30;99.90;;;;;;5056911;28;20209;-71
2021/09/05 04:01:31;;;;;;;19.30;13.70;;;14.30;99.90;;;;;;5058189;28;20514;-72
2021/09/05 04:03:56;;;;;;;16.80;13.90;;;14.30;99.90;;;;;;5057320;28;20176;-72
2021/09/05 04:06:22;;;;;;;16.67;14.20;;;14.30;99.90;;;;;;5057315;28;20893;-71
2021/09/05 04:08:49;;;;;;;23.03;13.87;;;14.30;99.90;;;;;;5056581;28;20178;-71
2021/09/05 04:11:16;;;;;;;18.80;13.80;;;14.30;99.90;;;;;;5038507;28;20687;-71
2021/09/05 04:13:41;;;;;;;20.13;14.80;;;14.30;99.90;;;;;;5056576;28;20397;-72
2021/09/05 04:16:07;;;;;;;19.03;13.73;;;14.30;99.90;;;;;;5058819;28;20492;-71
2021/09/05 04:18:33;;;;;;;18.23;13.30;;;14.30;99.90;;;;;;5057920;28;20224;-71
2021/09/05 04:20:58;;;;;;;20.33;14.20;;;14.30;99.90;;;;;;5057807;28;20528;-71
2021/09/05 04:23:24;;;;;;;16.87;13.50;;;14.30;99.90;;;;;;5058535;28;20170;-72
2021/09/05 04:25:50;;;;;;;21.20;14.27;;;14.30;99.90;;;;;;5057909;28;20180;-72
2021/09/05 04:28:16;;;;;;;18.37;13.60;;;14.30;99.90;;;;;;5058530;28;20432;-71
2021/09/05 04:30:41;;;;;;;19.03;13.67;;;14.30;99.90;;;;;;5058404;28;20210;-71
2021/09/05 04:33:07;;;;;;;16.80;12.57;;;14.20;99.90;;;;;;5058252;28;20167;-72
2021/09/05 04:35:33;;;;;;;19.27;14.60;;;14.30;99.90;;;;;;5057706;28;20236;-72
2021/09/05 04:37:58;;;;;;;18.00;13.90;;;14.30;99.90;;;;;;5058034;28;20166;-71
2021/09/05 04:40:24;;;;;;;18.10;13.90;;;14.30;99.90;;;;;;5056706;28;20663;-71
2021/09/05 04:42:49;;;;;;;17.33;12.70;;;14.30;99.90;;;;;;5056337;28;20178;-72
2021/09/05 04:45:15;;;;;;;18.97;13.47;;;14.30;99.90;;;;;;5056407;28;20232;-72
2021/09/05 04:47:41;;;;;;;15.57;12.90;;;14.30;99.90;;;;;;5056033;28;20539;-72
2021/09/05 04:50:06;;;;;;;18.70;14.88;;;14.30;99.90;;;;;;5054964;28;20408;-71
2021/09/05 04:52:32;;;;;;;19.00;14.03;;;14.20;99.90;;;;;;5055831;28;20261;-71
2021/09/05 04:54:58;;;;;;;20.33;14.73;;;14.10;99.90;;;;;;5055891;28;20412;-71
2021/09/05 04:57:23;;;;;;;17.50;13.53;;;14.00;99.90;;;;;;5055867;28;20177;-71
2021/09/05 04:59:49;;;;;;;16.10;13.30;;;14.00;99.90;;;;;;5055743;28;20201;-71
2021/09/05 05:02:14;;;;;;;19.13;14.60;;;14.00;99.90;;;;;;5056750;28;20182;-71
2021/09/05 05:04:40;;;;;;;18.40;14.40;;;14.00;99.90;;;;;;5056011;28;20175;-72
2021/09/05 05:07:06;;;;;;;19.53;14.27;;;13.90;99.90;;;;;;5055645;28;20170;-72
2021/09/05 05:09:31;;;;;;;18.47;13.93;;;13.90;99.90;;;;;;5037033;28;20578;-72
2021/09/05 05:11:57;;;;;;;20.10;14.33;;;13.90;99.90;;;;;;5054984;28;20464;-72
2021/09/05 05:14:22;;;;;;;18.90;14.40;;;14.00;99.90;;;;;;5055773;28;20212;-72
2021/09/05 05:16:48;;;;;;;17.93;13.90;;;14.00;99.90;;;;;;5056081;28;20178;-71
2021/09/05 05:19:13;;;;;;;17.53;14.33;;;14.10;99.90;;;;;;5055449;28;20174;-72
2021/09/05 05:21:40;;;;;;;16.87;13.63;;;14.10;99.90;;;;;;5055048;28;20603;-72
2021/09/05 05:24:05;;;;;;;16.87;14.00;;;14.10;99.90;;;;;;5037583;28;20185;-71
2021/09/05 05:26:31;;;;;;;16.10;13.30;;;14.10;99.90;;;;;;5047810;28;20452;-72
2021/09/05 05:28:57;;;;;;;17.70;12.60;;;14.20;99.90;;;;;;5046306;28;20222;-71
2021/09/05 05:31:23;;;;;;;18.08;13.95;;;14.20;99.90;;;;;;5050790;28;20428;-71
2021/09/05 05:33:49;;;;;;;17.23;13.37;;;14.30;99.90;;;;;;5043908;28;20224;-71
2021/09/05 05:36:14;;;;;;;19.00;13.57;;;14.30;99.90;;;;;;5046633;28;20804;-71
2021/09/05 05:38:40;;;;;;;16.70;12.83;;;14.30;99.90;;;;;;5054465;28;20206;-72
2021/09/05 05:41:07;;;;;;;17.20;13.20;;;14.30;99.90;;;;;;5036738;28;20548;-72
2021/09/05 05:43:33;;;;;;;18.57;12.73;;;14.30;99.90;;;;;;5036833;28;20503;-72
2021/09/05 05:45:58;;;;;;;17.63;13.67;;;14.30;99.90;;;;;;5036558;28;20421;-72
2021/09/05 05:48:24;;;;;;;20.37;14.80;;;14.40;99.90;;;;;;5054878;28;20416;-73
2021/09/05 05:50:52;;;;;;;16.90;13.53;;;14.30;99.90;;;;;;5054619;28;20278;-72
2021/09/05 05:53:17;;;;;;;20.47;14.60;;;14.40;99.90;;;;;;5054907;28;20256;-72
2021/09/05 05:55:43;;;;;;;17.53;12.73;;;14.40;99.90;;;;;;5054225;28;20977;-71
2021/09/05 05:58:08;;;;;;;17.67;13.03;;;14.30;99.90;;;;;;5054387;28;20258;-72
2021/09/05 06:00:35;;;;;;;18.00;13.33;;;14.30;99.90;;;;;;5053944;28;20237;-72
2021/09/05 06:03:01;;;;;;;18.40;14.57;;;14.40;99.90;;;;;;4997743;28;20261;-73
2021/09/05 06:05:27;;;;;;;15.83;13.17;;;14.40;99.90;;;;;;5050427;28;20425;-73
2021/09/05 06:07:53;;;;;;;20.00;13.40;;;14.40;99.90;;;;;;5048856;28;20428;-70
2021/09/05 06:10:18;;;;;;;18.73;14.10;;;14.40;99.90;;;;;;5049216;28;20242;-72
2021/09/05 06:12:44;;;;;;;16.67;13.77;;;14.50;99.90;;;;;;5050844;28;20189;-70
2021/09/05 06:15:10;;;;;;;17.40;14.40;;;14.50;99.90;;;;;;5050750;28;20174;-72
2021/09/05 06:17:35;;;;;;;17.50;14.23;;;14.50;99.90;;;;;;5049519;28;20236;-72
2021/09/05 06:20:01;;;;;;;16.60;13.77;;;14.50;99.90;;;;;;5050416;28;20412;-73
2021/09/05 06:22:26;;;;;;;14.50;12.33;;;14.60;99.90;;;;;;5050619;28;20185;-72
2021/09/05 06:24:52;;;;;;;17.90;14.10;;;14.60;99.90;;;;;;5050398;28;20240;-73
2021/09/05 06:27:17;;;;;;;15.83;13.70;;;14.60;99.90;;;;;;5050598;28;20252;-73
2021/09/05 06:29:43;;;;;;;18.57;13.60;;;14.60;99.90;;;;;;5050785;28;20167;-71
2021/09/05 06:32:09;;;;;;;16.10;14.23;;;14.70;99.90;;;;;;5050845;28;20713;-71
2021/09/05 06:34:34;;;;;;;18.10;13.73;;;14.70;99.90;;;;;;5051429;28;20174;-71
2021/09/05 06:37:00;;;;;;;17.00;13.27;;;14.80;99.90;;;;;;5032690;28;20166;-72
2021/09/05 06:39:25;;;;;;;18.10;13.60;;;14.80;99.90;;;;;;5050510;28;20209;-72
2021/09/05 06:41:51;;;;;;;15.70;12.10;;;14.90;99.90;;;;;;5050627;28;20663;-72
2021/09/05 06:44:16;;;;;;;17.10;13.43;;;14.90;99.90;;;;;;5050554;28;20174;-72
2021/09/05 06:46:42;;;;;;;17.90;12.80;;;14.90;99.90;;;;;;5051774;28;20546;-72
2021/09/05 06:49:08;;;;;;;15.17;12.10;;;15.00;99.90;;;;;;5059032;28;20584;-73
2021/09/05 06:51:33;;;;;;;16.90;13.00;;;15.00;99.90;;;;;;5044034;28;20248;-71
2021/09/05 06:53:59;;;;;;;15.80;12.60;;;15.10;99.90;;;;;;5058115;28;20178;-71
2021/09/05 06:56:24;;;;;;;16.17;13.13;;;15.10;99.90;;;;;;5057050;28;20197;-72
2021/09/05 06:58:50;;;;;;;15.97;12.50;;;15.20;99.90;;;;;;5050469;28;20174;-71
2021/09/05 07:01:15;;;;;;;16.83;13.60;;;15.20;99.90;;;;;;5050298;28;20210;-71
2021/09/05 07:03:41;;;;;;;18.10;13.30;;;15.20;99.90;;;;;;5059979;28;20596;-72
2021/09/05 07:06:06;;;;;;;15.43;13.10;;;15.30;99.90;;;;;;5049656;28;20225;-70
2021/09/05 07:08:32;;;;;;;14.77;12.50;;;15.40;99.90;;;;;;5049098;28;20244;-72
2021/09/05 07:10:58;;;;;;;15.60;12.73;;;15.40;99.90;;;;;;5056282;28;20591;-73
2021/09/05 07:13:23;;;;;;;17.70;12.73;;;15.50;99.90;;;;;;5069831;28;20197;-71
2021/09/05 07:15:49;;;;;;;18.10;13.20;;;15.60;99.90;;;;;;5038374;28;20531;-72
2021/09/05 07:18:14;;;;;;;14.97;12.67;;;15.60;99.90;;;;;;5058881;28;20910;-71
2021/09/05 07:20:40;;;;;;;14.17;11.97;;;15.70;99.90;;;;;;5058733;28;20228;-74
2021/09/05 07:23:05;;;;;;;17.33;12.50;;;15.80;99.90;;;;;;5055567;28;20209;-72
2021/09/05 07:25:31;;;;;;;16.10;13.03;;;15.90;99.90;;;;;;5054085;28;20213;-70
2021/09/05 07:27:57;;;;;;;15.90;13.60;;;16.00;99.90;;;;;;5021595;28;20271;-73
2021/09/05 07:30:25;;;;;;;16.13;13.37;;;16.10;99.90;;;;;;5056723;28;20230;-73
2021/09/05 07:32:51;;;;;;;14.20;12.20;;;16.20;99.90;;;;;;5052118;28;20764;-71
2021/09/05 07:35:20;;;;;;;14.60;12.17;;;16.30;99.90;;;;;;5061326;28;21044;-71
2021/09/05 07:37:49;;;;;;;16.40;13.00;;;16.40;99.90;;;;;;5050698;28;20542;-72
2021/09/05 07:40:20;;;;;;;15.00;13.00;;;16.40;99.90;;;;;;5052969;28;20451;-72
2021/09/05 07:42:48;;;;;;;16.58;13.18;;;16.50;99.90;;;;;;5070204;28;20767;-72
2021/09/05 07:45:13;;;;;;;16.87;14.10;;;16.60;99.90;;;;;;5052597;28;20216;-71
2021/09/05 07:47:39;;;;;;;15.40;13.30;;;16.70;99.90;;;;;;5056437;28;20476;-74
2021/09/05 07:50:09;;;;;;;15.57;13.47;;;16.80;99.90;;;;;;5068480;28;20202;-72
2021/09/05 07:52:34;;;;;;;17.07;13.53;;;16.90;99.90;;;;;;5038564;28;20866;-73
2021/09/05 07:55:00;;;;;;;14.10;12.60;;;17.00;99.90;;;;;;5051827;28;20555;-73
2021/09/05 07:57:25;;;;;;;17.53;13.17;;;17.10;99.90;;;;;;5047781;28;20301;-73
2021/09/05 07:59:51;;;;;;;15.80;12.43;;;17.20;99.90;;;;;;5034078;28;20202;-71
2021/09/05 08:02:18;;;;;;;15.93;11.73;;;17.30;99.90;;;;;;5050290;28;20254;-71
2021/09/05 08:04:43;;;;;;;13.87;11.97;;;17.40;99.90;;;;;;5034108;28;20209;-72
2021/09/05 08:07:10;;;;;;;16.87;12.80;;;17.50;99.90;;;;;;5039939;28;20543;-73
2021/09/05 08:09:36;;;;;;;14.17;12.63;;;17.60;99.90;;;;;;5046884;28;20669;-71
2021/09/05 08:12:01;;;;;;;14.73;12.00;;;17.70;99.90;;;;;;5044684;28;20537;-72
2021/09/05 08:14:30;;;;;;;15.13;12.80;;;17.80;99.90;;;;;;5041123;28;20208;-73
2021/09/05 08:16:55;;;;;;;14.13;12.73;;;17.90;99.90;;;;;;5049220;28;20232;-72
2021/09/05 08:19:21;;;;;;;13.03;11.60;;;17.90;99.90;;;;;;5050884;28;20573;-73
2021/09/05 08:21:48;;;;;;;13.23;11.73;;;18.10;99.90;;;;;;5063849;28;20217;-72
2021/09/05 08:24:14;;;;;;;14.93;12.67;;;18.20;99.90;;;;;;5042513;28;20213;-72
2021/09/05 08:26:39;;;;;;;13.33;11.93;;;18.30;99.90;;;;;;5058855;28;20464;-70
2021/09/05 08:29:06;;;;;;;14.17;11.87;;;18.30;99.90;;;;;;5054212;28;20194;-69
2021/09/05 08:31:31;;;;;;;13.50;12.10;;;18.40;99.90;;;;;;5063925;28;20217;-65
2021/09/05 08:33:57;;;;;;;13.80;11.30;;;18.60;99.90;;;;;;5072727;28;20424;-66
2021/09/05 08:36:23;;;;;;;15.07;12.57;;;18.70;99.90;;;;;;5072533;28;20188;-63
2021/09/05 08:38:48;;;;;;;15.77;11.90;;;18.90;99.90;;;;;;5071609;28;20185;-63
2021/09/05 08:41:14;;;;;;;14.40;12.00;;;19.10;99.90;;;;;;5061656;28;20209;-65
2021/09/05 08:43:39;;;;;;;11.43;10.10;;;19.30;99.90;;;;;;5052486;28;20186;-64
2021/09/05 08:46:05;;;;;;;12.10;10.90;;;19.50;99.90;;;;;;5068663;28;20224;-64
2021/09/05 08:48:31;;;;;;;12.70;11.20;;;19.60;99.90;;;;;;5072551;28;20227;-64
2021/09/05 08:50:56;;;;;;;12.10;10.80;;;19.80;99.90;;;;;;5047608;28;20212;-64
2021/09/05 08:53:22;;;;;;;12.80;11.10;;;19.90;99.90;;;;;;5051289;28;20715;-64
2021/09/05 08:55:48;;;;;;;13.30;11.90;;;20.10;99.90;;;;;;5050709;28;20541;-65
2021/09/05 08:58:14;;;;;;;12.70;11.40;;;20.20;99.90;;;;;;5053422;28;20423;-64
2021/09/05 09:00:42;;;;;;;13.43;11.40;;;20.30;99.90;;;;;;5058843;28;20991;-63
2021/09/05 09:03:08;;;;;;;11.90;10.70;;;20.50;99.90;;;;;;5071178;28;21049;-65
2021/09/05 09:05:42;;;;;;;12.80;10.90;;;20.60;99.90;;;;;;5058843;28;20538;-64
2021/09/05 09:08:13;;;;;;;13.60;12.20;;;20.70;99.90;;;;;;5058644;28;21218;-65
2021/09/05 09:10:46;;;;;;;12.90;11.57;;;20.90;99.90;;;;;;5053799;28;20475;-72
2021/09/05 09:13:33;;;;;;;13.23;11.80;;;21.10;99.90;;;;;;5063727;28;20447;-72
2021/09/05 09:16:10;;;;;;;14.17;12.67;;;21.20;99.90;;;;;;5056668;28;20426;-73
2021/09/05 09:18:38;;;;;;;13.40;11.23;;;21.20;99.90;;;;;;5022756;28;20821;-72
2021/09/05 09:21:21;;;;;;;12.80;11.50;;;21.30;99.90;;;;;;5073206;28;20455;-73
2021/09/05 09:23:49;;;;;;;13.03;11.73;;;21.30;99.90;;;;;;5057486;28;20925;-73
2021/09/05 09:26:15;;;;;;;13.63;12.23;;;21.40;99.90;;;;;;5069427;28;20435;-73
2021/09/05 09:28:45;;;;;;;14.00;12.60;;;21.30;99.90;;;;;;5058511;28;20412;-72
2021/09/05 09:31:19;;;;;;;14.20;12.60;;;21.40;99.90;;;;;;5074999;28;20862;-72
2021/09/05 09:33:48;;;;;;;12.57;11.33;;;21.50;99.90;;;;;;5062784;28;20499;-72
2021/09/05 09:36:16;;;;;;;13.63;12.20;;;21.50;99.90;;;;;;5054729;28;20409;-73
2021/09/05 09:38:52;;;;;;;12.53;11.33;;;21.60;99.90;;;;;;5054465;28;21038;-72
2021/09/05 09:41:17;;;;;;;13.40;12.00;;;21.70;99.90;;;;;;5042914;28;20792;-73
2021/09/05 09:43:55;;;;;;;13.60;11.70;;;21.70;99.90;;;;;;5050248;28;20420;-73
2021/09/05 09:46:24;;;;;;;12.83;11.53;;;21.80;99.90;;;;;;5055330;28;20180;-71
2021/09/05 09:48:52;;;;;;;12.23;10.97;;;21.80;99.90;;;;;;5074335;28;20396;-71
2021/09/05 09:51:18;;;;;;;14.50;11.93;;;22.00;99.90;;;;;;5074172;28;20447;-71
2021/09/05 09:53:44;;;;;;;12.73;11.43;;;22.10;99.90;;;;;;5050898;28;20420;-73
2021/09/05 09:56:15;;;;;;;12.80;11.60;;;22.10;99.90;;;;;;5071240;28;20518;-71
2021/09/05 09:58:41;;;;;;;14.47;11.57;;;22.10;99.90;;;;;;5057034;28;20931;-73
2021/09/05 10:01:08;;;;;;;13.43;12.03;;;22.20;99.90;;;;;;5075082;28;20436;-72
2021/09/05 10:03:35;;;;;;;13.23;12.00;;;22.20;99.90;;;;;;5053371;28;20189;-72
2021/09/05 10:06:02;;;;;;;12.60;11.40;;;22.30;99.90;;;;;;5056753;28;20431;-71
2021/09/05 10:08:30;;;;;;;12.70;11.40;;;22.40;99.90;;;;;;5054984;28;21006;-72
2021/09/05 10:10:58;;;;;;;13.40;11.47;;;22.50;99.90;;;;;;5061476;28;20447;-72
2021/09/05 10:13:30;;;;;;;12.10;10.67;;;22.70;99.90;;;;;;5075406;28;20448;-72
2021/09/05 10:15:56;;;;;;;12.17;10.97;;;22.60;99.90;;;;;;5080213;28;20448;-73
2021/09/05 10:18:22;;;;;;;13.20;11.97;;;22.60;99.90;;;;;;5086995;28;20416;-73
2021/09/05 10:20:48;;;;;;;13.00;11.80;;;22.70;99.90;;;;;;5068980;28;20419;-73
2021/09/05 10:23:14;;;;;;;12.17;11.07;;;22.80;99.90;;;;;;5068449;28;20195;-73
2021/09/05 10:25:39;;;;;;;12.13;10.93;;;22.90;99.90;;;;;;5078142;28;20190;-73
2021/09/05 10:28:05;;;;;;;12.57;11.33;;;23.00;99.90;;;;;;5051629;28;20204;-72
2021/09/05 10:30:31;;;;;;;12.60;11.50;;;23.00;99.90;;;;;;5054165;28;20206;-73
2021/09/05 10:33:02;;;;;;;12.53;11.30;;;23.10;99.90;;;;;;5065566;28;20176;-72
2021/09/05 10:35:29;;;;;;;12.20;10.53;;;23.20;99.90;;;;;;5078558;28;20403;-71
2021/09/05 10:38:15;;;;;;;13.37;12.07;;;23.30;99.90;;;;;;5041413;28;20413;-72
2021/09/05 10:40:42;;;;;;;12.60;11.30;;;23.30;99.90;;;;;;5025411;28;20577;-73
2021/09/05 10:43:08;;;;;;;12.20;11.10;;;23.30;99.90;;;;;;5038692;28;20539;-72
2021/09/05 10:45:36;;;;;;;12.07;10.77;;;23.40;99.90;;;;;;5052148;28;20471;-73
2021/09/05 10:48:02;;;;;;;12.33;11.07;;;23.50;99.90;;;;;;5067797;28;20834;-73
2021/09/05 10:50:38;;;;;;;11.70;10.60;;;23.50;99.90;;;;;;5071638;28;20467;-73
2021/09/05 10:53:22;;;;;;;12.73;11.00;;;23.60;99.90;;;;;;5067499;28;20166;-72
2021/09/05 10:56:04;;;;;;;16.33;10.77;;;23.60;99.90;;;;;;5059244;28;20530;-73
2021/09/05 10:58:47;;;;;;;13.18;11.88;;;23.60;99.90;;;;;;5050102;28;20912;-71
2021/09/05 11:01:15;;;;;;;12.87;11.57;;;23.70;99.90;;;;;;5062602;28;20208;-72
2021/09/05 11:04:12;;;;;;;11.93;10.83;;;23.70;99.80;;;;;;5068759;28;20428;-72
2021/09/05 11:06:45;;;;;;;12.50;11.30;;;23.60;99.70;;;;;;5024305;28;20774;-73
2021/09/05 11:09:20;;;;;;;11.97;10.87;;;23.60;99.90;;;;;;5051952;28;20459;-73
2021/09/05 11:12:04;;;;;;;12.97;11.77;;;23.70;99.60;;;;;;5054920;28;20470;-73
2021/09/05 11:14:48;;;;;;;12.20;11.10;;;23.70;99.20;;;;;;5067704;28;20444;-72
2021/09/05 11:17:17;;;;;;;12.33;11.13;;;23.80;99.80;;;;;;5053229;28;20506;-73
2021/09/05 11:20:01;;;;;;;13.93;12.10;;;23.80;99.90;;;;;;5053297;28;20454;-73
2021/09/05 11:22:33;;;;;;;13.70;12.20;;;23.70;99.90;;;;;;5036123;28;20416;-72
2021/09/05 11:25:27;;;;;;;15.17;12.53;;;23.80;99.90;;;;;;5056921;28;20412;-73
2021/09/05 11:28:02;;;;;;;13.90;12.40;;;23.80;99.90;;;;;;5066806;28;20402;-72
2021/09/05 11:30:49;;;;;;;14.27;12.70;;;23.80;99.90;;;;;;5072858;28;20188;-72
2021/09/05 11:33:14;;;;;;;14.80;11.93;;;23.80;99.90;;;;;;5055436;28;20912;-72
2021/09/05 11:35:49;;;;;;;13.10;11.90;;;23.80;99.90;;;;;;5060289;28;20419;-72
2021/09/05 11:38:16;;;;;;;14.70;13.20;;;23.70;99.90;;;;;;5053727;28;20186;-71
2021/09/05 11:40:47;;;;;;;12.60;11.37;;;23.70;99.90;;;;;;5072820;28;20431;-71
2021/09/05 11:43:14;;;;;;;14.10;11.70;;;23.50;99.90;;;;;;5064084;28;20759;-71
2021/09/05 11:45:41;;;;;;;14.10;12.60;;;23.40;99.90;;;;;;5044807;28;20944;-71
2021/09/05 11:48:08;;;;;;;13.40;12.07;;;23.30;99.90;;;;;;5069269;28;20462;-72
2021/09/05 11:50:34;;;;;;;13.83;12.47;;;23.20;99.90;;;;;;5072739;28;20486;-72
2021/09/05 11:53:00;;;;;;;12.47;11.20;;;23.10;99.90;;;;;;5071699;28;20427;-72
2021/09/05 11:55:25;;;;;;;13.63;12.33;;;23.10;99.90;;;;;;5034597;28;20953;-73
2021/09/05 11:57:59;;;;;;;13.70;12.30;;;23.10;99.90;;;;;;5065887;28;20180;-72
2021/09/05 12:00:32;;;;;;;13.47;11.80;;;23.10;99.90;;;;;;5070294;28;20434;-73
2021/09/05 12:03:09;;;;;;;14.50;12.63;;;23.00;99.90;;;;;;5070628;28;20803;-72
2021/09/05 12:05:36;;;;;;;16.47;13.10;;;22.90;99.90;;;;;;5064387;28;20449;-71
2021/09/05 12:08:03;;;;;;;14.97;13.40;;;22.90;99.90;;;;;;5048456;28;20419;-72
2021/09/05 12:10:30;;;;;;;14.75;13.30;;;22.90;99.90;;;;;;5070107;28;20426;-73
2021/09/05 12:13:05;;;;;;;15.23;13.63;;;22.90;99.90;;;;;;5064391;28;20320;-73
2021/09/05 12:15:43;;;;;;;13.77;12.47;;;23.10;99.90;;;;;;5054398;28;20458;-73
2021/09/05 12:18:25;;;;;;;13.40;12.00;;;23.10;99.90;;;;;;5066683;28;20504;-73
2021/09/05 12:20:57;;;;;;;16.93;13.47;;;23.10;99.90;;;;;;5065246;28;20458;-72
2021/09/05 12:23:29;;;;;;;14.00;11.80;;;23.20;99.90;;;;;;5076044;28;20415;-72
2021/09/05 12:25:58;;;;;;;16.20;13.10;;;23.20;99.90;;;;;;5061332;28;20416;-71
2021/09/05 12:28:26;;;;;;;13.77;12.33;;;23.10;99.90;;;;;;5058082;28;20805;-72